Time;durP1;ratioP1;P1;durP2;ratioP2;P2;SDS_P1;SDS_P2;PMS_P1;PMS_P2;Temp;Humidity;BMP_temperature;BMP_pressure;BME280_temperature;BME280_humidity;BME280_pressure;Samples;Min_cycle;Max_cycle;Signal;HPM_P1;HPM_P2
2022/12/11 00:01:59;;;;;;;208.60;48.28;;;-2.30;99.90;;;;;;5089948;28;20043;-65
2022/12/11 00:04:25;;;;;;;218.82;47.70;;;-2.30;99.90;;;;;;5060766;28;20417;-65
2022/12/11 00:06:52;;;;;;;207.55;41.35;;;-1.80;99.90;;;;;;5076300;28;20561;-64
2022/12/11 00:09:18;;;;;;;263.45;49.28;;;-1.60;99.90;;;;;;5059786;28;20474;-65
2022/12/11 00:11:45;;;;;;;277.10;50.42;;;-1.00;99.90;;;;;;5108463;27;20130;-64
2022/12/11 00:14:11;;;;;;;238.10;46.17;;;-0.20;99.90;;;;;;5076504;28;20474;-66
2022/12/11 00:16:37;;;;;;;223.02;42.25;;;-0.40;99.90;;;;;;5107396;27;20751;-63
2022/12/11 00:19:03;;;;;;;252.65;46.13;;;-1.80;99.90;;;;;;5080839;28;20084;-64
2022/12/11 00:21:29;;;;;;;276.80;47.92;;;-1.60;99.90;;;;;;5079574;28;20545;-65
2022/12/11 00:23:55;;;;;;;221.80;39.90;;;-0.90;99.90;;;;;;5077978;28;20036;-66
2022/12/11 00:26:21;;;;;;;295.98;51.83;;;-2.30;99.90;;;;;;5108546;27;20126;-64
2022/12/11 00:28:47;;;;;;;245.13;47.25;;;-0.30;99.90;;;;;;5077250;28;20713;-64
2022/12/11 00:31:16;;;;;;;283.15;53.00;;;-2.50;99.90;;;;;;5072393;28;20217;-64
2022/12/11 00:33:43;;;;;;;206.75;43.75;;;-0.30;99.90;;;;;;5056822;28;20122;-66
2022/12/11 00:36:18;;;;;;;213.68;45.38;;;-1.30;99.90;;;;;;5106210;27;20060;-64
2022/12/11 00:38:43;;;;;;;231.25;45.72;;;-0.50;99.90;;;;;;5074905;28;20044;-64
2022/12/11 00:41:10;;;;;;;217.20;43.38;;;-0.30;99.90;;;;;;5108869;27;20071;-64
2022/12/11 00:43:36;;;;;;;268.00;48.85;;;-2.30;99.90;;;;;;5079957;28;20078;-65
2022/12/11 00:46:02;;;;;;;206.15;45.17;;;-2.20;99.90;;;;;;5077872;28;20136;-63
2022/12/11 00:48:29;;;;;;;241.15;50.58;;;-0.70;99.90;;;;;;5075723;28;20508;-65
2022/12/11 00:50:55;;;;;;;251.38;45.30;;;-0.50;99.90;;;;;;5076257;28;21374;-63
2022/12/11 00:53:20;;;;;;;227.70;46.90;;;-2.60;99.90;;;;;;5068088;28;20058;-64
2022/12/11 00:55:46;;;;;;;199.98;45.22;;;-0.70;99.90;;;;;;5075058;28;20062;-64
2022/12/11 00:58:12;;;;;;;240.55;49.25;;;-2.60;99.90;;;;;;5078075;28;20035;-64
2022/12/11 01:00:39;;;;;;;211.85;41.88;;;-2.60;99.90;;;;;;5084743;28;20081;-64
2022/12/11 01:03:05;;;;;;;250.27;49.63;;;-2.00;99.90;;;;;;5057346;28;20044;-65
2022/12/11 01:05:31;;;;;;;264.40;48.03;;;-0.70;99.90;;;;;;5073757;28;20063;-65
2022/12/11 01:07:58;;;;;;;237.15;47.33;;;-0.30;99.90;;;;;;5074087;28;20032;-65
2022/12/11 01:10:23;;;;;;;271.67;50.67;;;-2.20;99.90;;;;;;5074979;28;20515;-65
2022/12/11 01:12:56;;;;;;;232.25;46.55;;;-0.70;99.90;;;;;;5077716;28;20103;-65
2022/12/11 01:15:24;;;;;;;261.73;50.60;;;-0.60;99.90;;;;;;5077876;28;20530;-65
2022/12/11 01:17:51;;;;;;;239.15;47.50;;;-0.40;99.90;;;;;;5086009;28;20040;-64
2022/12/11 01:20:18;;;;;;;230.27;46.03;;;-2.60;99.90;;;;;;5077263;28;20075;-65
2022/12/11 01:22:44;;;;;;;230.30;50.95;;;-0.30;99.90;;;;;;5060234;28;20198;-66
2022/12/11 01:25:10;;;;;;;262.00;51.03;;;-0.70;99.90;;;;;;5104675;28;20135;-65
2022/12/11 01:27:37;;;;;;;218.77;48.40;;;-2.60;99.90;;;;;;5106189;28;20435;-65
2022/12/11 01:30:10;;;;;;;215.32;41.05;;;-0.30;99.90;;;;;;5077080;28;20783;-65
2022/12/11 01:32:36;;;;;;;261.23;47.70;;;-2.40;99.90;;;;;;5108690;28;20384;-64
2022/12/11 01:35:04;;;;;;;242.27;50.63;;;-2.40;99.90;;;;;;5078859;28;20106;-64
2022/12/11 01:37:30;;;;;;;327.30;54.53;;;-1.60;99.90;;;;;;5090125;28;20047;-65
2022/12/11 01:39:56;;;;;;;247.10;48.78;;;-2.70;99.90;;;;;;5074158;28;20036;-64
2022/12/11 01:42:23;;;;;;;251.60;50.88;;;-2.20;99.90;;;;;;5058678;28;20078;-65
2022/12/11 01:44:49;;;;;;;236.82;47.38;;;-0.80;99.90;;;;;;5078454;28;20048;-65
2022/12/11 01:47:15;;;;;;;258.33;50.97;;;-0.90;99.90;;;;;;5059101;28;20128;-65
2022/12/11 01:49:42;;;;;;;247.88;49.65;;;-0.40;99.90;;;;;;5061273;28;20055;-65
2022/12/11 01:52:17;;;;;;;232.75;44.75;;;-0.30;99.90;;;;;;5077566;28;20635;-67
2022/12/11 01:54:44;;;;;;;247.07;52.25;;;-2.40;99.90;;;;;;5078204;28;21040;-64
2022/12/11 01:57:11;;;;;;;233.88;50.95;;;-1.70;99.90;;;;;;5085540;28;20051;-64
2022/12/11 01:59:39;;;;;;;229.38;50.17;;;-2.30;99.90;;;;;;5076747;28;20040;-64
2022/12/11 02:02:13;;;;;;;198.10;46.70;;;-0.10;99.90;;;;;;5107567;28;20039;-65
2022/12/11 02:04:41;;;;;;;198.57;45.47;;;-1.70;99.90;;;;;;5076819;28;20031;-63
2022/12/11 02:07:06;;;;;;;141.30;36.53;;;-1.40;99.90;;;;;;5077878;28;20043;-66
2022/12/11 02:09:36;;;;;;;153.50;38.30;;;-1.20;99.90;;;;;;5085325;28;20745;-65
2022/12/11 02:12:13;;;;;;;157.55;40.33;;;-0.30;99.90;;;;;;5042779;28;20040;-66
2022/12/11 02:14:58;;;;;;;170.82;40.53;;;-1.80;99.90;;;;;;5076162;28;20497;-65
2022/12/11 02:17:41;;;;;;;160.55;38.90;;;-0.20;99.90;;;;;;5076305;28;20048;-64
2022/12/11 02:20:20;;;;;;;152.63;40.67;;;-0.70;99.90;;;;;;5075021;28;20516;-65
2022/12/11 02:23:01;;;;;;;141.52;38.35;;;-2.30;99.90;;;;;;5075060;28;20533;-64
2022/12/11 02:25:36;;;;;;;135.75;35.17;;;0.10;99.90;;;;;;5058475;28;20045;-65
2022/12/11 02:28:15;;;;;;;147.38;38.13;;;-2.30;99.90;;;;;;5054239;28;20040;-65
2022/12/11 02:30:44;;;;;;;150.60;38.00;;;-0.90;99.90;;;;;;5081932;28;20073;-63
2022/12/11 02:33:12;;;;;;;139.23;36.72;;;0.00;99.90;;;;;;5082950;28;20078;-64
2022/12/11 02:35:41;;;;;;;152.10;38.25;;;-0.40;99.90;;;;;;5080251;28;20046;-63
2022/12/11 02:38:40;;;;;;;146.35;38.00;;;-2.10;99.90;;;;;;5081873;28;20071;-65
2022/12/11 02:41:08;;;;;;;141.85;35.03;;;0.30;99.90;;;;;;5078814;28;20070;-63
2022/12/11 02:43:35;;;;;;;116.25;32.72;;;-0.30;99.90;;;;;;5076671;28;20143;-64
2022/12/11 02:46:04;;;;;;;145.77;36.25;;;-1.90;99.90;;;;;;5083196;28;20580;-65
2022/12/11 02:48:32;;;;;;;150.40;38.47;;;0.30;99.90;;;;;;5062374;28;20741;-64
2022/12/11 02:51:04;;;;;;;149.38;36.22;;;-1.70;99.90;;;;;;5079116;28;20044;-64
2022/12/11 02:53:31;;;;;;;148.15;35.65;;;-2.00;99.90;;;;;;5080168;28;20035;-65
2022/12/11 02:56:23;;;;;;;130.82;33.30;;;-2.00;99.90;;;;;;5078550;28;20582;-65
2022/12/11 02:58:56;;;;;;;118.97;30.77;;;-2.10;99.90;;;;;;5059583;28;20036;-65
2022/12/11 03:01:22;;;;;;;132.65;35.03;;;-1.80;99.90;;;;;;5079111;28;20119;-65
2022/12/11 03:03:48;;;;;;;126.40;34.45;;;-1.20;99.90;;;;;;5093395;27;20173;-65
2022/12/11 03:06:21;;;;;;;133.95;35.35;;;0.20;99.90;;;;;;5109297;27;20048;-65
2022/12/11 03:08:50;;;;;;;131.57;35.30;;;0.00;99.90;;;;;;5093338;28;20043;-64
2022/12/11 03:11:16;;;;;;;131.27;32.67;;;-1.00;99.90;;;;;;5079982;28;20047;-64
2022/12/11 03:13:42;;;;;;;134.80;33.67;;;0.40;99.90;;;;;;5078237;28;20048;-63
2022/12/11 03:16:23;;;;;;;127.43;32.38;;;-0.50;99.90;;;;;;5077251;28;20397;-63
2022/12/11 03:19:08;;;;;;;110.47;31.02;;;0.40;99.90;;;;;;5079759;28;20040;-67
2022/12/11 03:21:51;;;;;;;120.40;33.53;;;0.50;99.90;;;;;;5078333;28;21091;-65
2022/12/11 03:24:44;;;;;;;113.90;30.85;;;-1.30;99.90;;;;;;5079095;28;20051;-65
2022/12/11 03:27:37;;;;;;;106.78;28.80;;;-2.00;99.90;;;;;;5101046;27;20159;-65
2022/12/11 03:30:11;;;;;;;109.47;30.40;;;-1.90;99.90;;;;;;5076227;28;20044;-66
2022/12/11 03:32:49;;;;;;;114.43;32.13;;;-1.40;99.90;;;;;;5107949;27;20079;-66
2022/12/11 03:35:20;;;;;;;110.05;30.55;;;-1.70;99.90;;;;;;5077197;28;20140;-63
2022/12/11 03:37:48;;;;;;;117.32;32.38;;;-1.80;99.90;;;;;;5076346;28;20090;-67
2022/12/11 03:40:17;;;;;;;121.40;32.67;;;-1.40;99.90;;;;;;5107819;27;20121;-66
2022/12/11 03:42:47;;;;;;;124.68;33.25;;;-1.10;99.90;;;;;;5087232;28;20044;-65
2022/12/11 03:45:15;;;;;;;137.45;34.28;;;0.70;99.90;;;;;;5077151;28;20136;-66
2022/12/11 03:47:43;;;;;;;119.38;33.60;;;-0.50;99.90;;;;;;5076322;28;20105;-66
2022/12/11 03:50:11;;;;;;;117.07;32.67;;;-1.30;99.90;;;;;;5108169;27;20106;-66
2022/12/11 03:52:40;;;;;;;115.90;30.77;;;0.70;99.90;;;;;;5076108;28;20127;-64
2022/12/11 03:55:06;;;;;;;121.00;32.65;;;-1.70;99.90;;;;;;5108214;27;20036;-64
2022/12/11 03:57:35;;;;;;;122.78;34.17;;;-1.80;99.90;;;;;;5043777;28;20047;-66
2022/12/11 04:00:10;;;;;;;110.30;30.35;;;-0.70;99.90;;;;;;5107453;27;20096;-65
2022/12/11 04:02:35;;;;;;;120.43;31.73;;;0.70;99.90;;;;;;5106468;27;20051;-65
2022/12/11 04:05:01;;;;;;;111.40;31.92;;;0.60;99.90;;;;;;5060797;28;20048;-66
2022/12/11 04:07:27;;;;;;;117.35;32.40;;;-0.20;99.90;;;;;;5042780;28;20040;-66
2022/12/11 04:09:54;;;;;;;116.55;32.03;;;0.70;99.90;;;;;;5043791;28;20044;-64
2022/12/11 04:12:19;;;;;;;123.30;32.92;;;-1.70;99.90;;;;;;5077454;28;21250;-64
2022/12/11 04:15:00;;;;;;;115.72;32.58;;;-1.60;99.90;;;;;;5076873;28;20413;-64
2022/12/11 04:25:48;;;;;;;109.40;30.55;;;-1.50;99.90;;;;;;5078611;28;20122;-64
2022/12/11 04:28:13;;;;;;;123.30;32.40;;;-1.60;99.90;;;;;;5077506;28;20119;-63
2022/12/11 04:30:39;;;;;;;94.15;27.35;;;-1.20;99.90;;;;;;5061206;28;20031;-64
2022/12/11 04:33:05;;;;;;;99.93;29.23;;;-1.20;99.90;;;;;;5077597;28;20138;-66
2022/12/11 04:35:30;;;;;;;94.93;30.05;;;-0.40;99.90;;;;;;5088056;28;20036;-66
2022/12/11 04:37:57;;;;;;;102.85;31.30;;;-1.60;99.90;;;;;;5077467;28;20052;-64
2022/12/11 04:40:23;;;;;;;111.75;32.22;;;-1.60;99.90;;;;;;5077122;28;20044;-65
2022/12/11 04:42:49;;;;;;;100.55;30.38;;;-1.30;99.90;;;;;;5077742;28;20548;-64
2022/12/11 04:45:15;;;;;;;107.63;29.00;;;0.30;99.90;;;;;;5078793;28;20063;-64
2022/12/11 04:47:41;;;;;;;96.40;28.58;;;-1.40;99.90;;;;;;5076607;28;20044;-64
2022/12/11 04:50:09;;;;;;;100.07;30.73;;;-1.60;99.90;;;;;;5077465;28;20067;-64
2022/12/11 04:52:35;;;;;;;97.50;29.10;;;-0.60;99.90;;;;;;5059933;28;20040;-64
2022/12/11 04:55:06;;;;;;;119.07;32.33;;;-1.30;99.90;;;;;;5106709;27;20077;-65
2022/12/11 04:57:32;;;;;;;112.38;32.28;;;-1.30;99.90;;;;;;5079005;28;20047;-64
2022/12/11 04:59:58;;;;;;;126.32;32.30;;;-1.20;99.90;;;;;;5079064;28;20036;-65
2022/12/11 05:02:25;;;;;;;117.00;31.17;;;0.80;99.90;;;;;;5078148;28;20800;-64
2022/12/11 05:04:51;;;;;;;124.90;34.40;;;-1.10;99.90;;;;;;5078004;28;20051;-64
2022/12/11 05:07:17;;;;;;;122.80;31.52;;;0.10;99.90;;;;;;5077316;28;20128;-64
2022/12/11 05:09:43;;;;;;;131.65;31.98;;;-1.30;99.90;;;;;;5075713;28;20043;-65
2022/12/11 05:12:08;;;;;;;116.88;32.72;;;0.00;99.90;;;;;;5077783;28;20505;-64
2022/12/11 05:14:34;;;;;;;128.15;31.30;;;0.20;99.90;;;;;;5077454;28;20377;-64
2022/12/11 05:17:00;;;;;;;135.00;33.97;;;-0.90;99.90;;;;;;5079096;28;20070;-64
2022/12/11 05:19:26;;;;;;;117.47;30.88;;;-1.20;99.90;;;;;;5076577;28;20044;-64
2022/12/11 05:21:52;;;;;;;124.45;33.63;;;0.70;99.90;;;;;;5077928;28;20769;-63
2022/12/11 05:24:18;;;;;;;134.60;35.55;;;0.70;99.90;;;;;;5076990;28;20056;-63
2022/12/11 05:26:43;;;;;;;124.75;34.50;;;0.10;99.90;;;;;;5059861;28;20048;-64
2022/12/11 05:29:09;;;;;;;127.93;34.17;;;-0.40;99.90;;;;;;5076375;28;20072;-63
2022/12/11 05:31:35;;;;;;;108.03;30.60;;;0.90;99.90;;;;;;5077064;28;20321;-64
2022/12/11 05:34:00;;;;;;;111.45;32.97;;;0.60;99.90;;;;;;5075457;28;20097;-68
2022/12/11 05:36:29;;;;;;;106.63;33.38;;;-1.00;99.90;;;;;;5077992;28;20147;-62
2022/12/11 05:38:56;;;;;;;103.07;32.75;;;-1.40;99.90;;;;;;5076857;28;20044;-65
2022/12/11 05:41:24;;;;;;;110.38;34.08;;;0.80;99.90;;;;;;5107428;28;20054;-64
2022/12/11 05:43:50;;;;;;;99.63;34.10;;;-0.80;99.90;;;;;;5076914;28;20036;-64
2022/12/11 05:46:21;;;;;;;103.97;33.97;;;1.00;99.90;;;;;;5075783;28;20494;-64
2022/12/11 05:48:48;;;;;;;107.53;33.25;;;-0.50;99.90;;;;;;5076675;28;20637;-64
2022/12/11 05:51:15;;;;;;;90.45;31.27;;;-0.80;99.90;;;;;;5078064;28;20047;-64
2022/12/11 05:53:42;;;;;;;82.30;28.35;;;1.00;99.90;;;;;;5106895;28;20406;-66
2022/12/11 05:56:12;;;;;;;80.75;29.98;;;0.80;99.90;;;;;;5107840;28;20040;-65
2022/12/11 05:58:39;;;;;;;96.07;33.97;;;-1.20;99.90;;;;;;5076920;28;20032;-65
2022/12/11 06:01:30;;;;;;;101.45;35.17;;;-1.30;99.90;;;;;;5073897;28;20047;-63
2022/12/11 06:03:57;;;;;;;88.57;30.77;;;-1.20;99.90;;;;;;5071821;28;20127;-63
2022/12/11 06:06:24;;;;;;;83.40;30.73;;;-1.30;99.90;;;;;;5080998;28;20063;-64
2022/12/11 06:08:52;;;;;;;83.82;30.02;;;-1.30;99.90;;;;;;5081609;28;20052;-63
2022/12/11 06:11:18;;;;;;;85.88;30.48;;;0.80;99.90;;;;;;5084809;28;21081;-64
2022/12/11 06:13:44;;;;;;;102.47;34.17;;;0.90;99.90;;;;;;5079651;28;20044;-65
2022/12/11 06:16:10;;;;;;;91.15;32.03;;;0.60;99.90;;;;;;5080962;28;20051;-63
2022/12/11 06:18:41;;;;;;;97.15;32.88;;;-0.30;99.90;;;;;;5081881;28;20412;-65
2022/12/11 06:21:22;;;;;;;103.30;33.03;;;-1.10;99.90;;;;;;5109867;27;20044;-64
2022/12/11 06:23:50;;;;;;;105.70;32.75;;;1.10;99.90;;;;;;5081083;28;20072;-65
2022/12/11 06:26:17;;;;;;;100.35;33.58;;;-0.50;99.90;;;;;;5109004;27;20042;-65
2022/12/11 06:28:43;;;;;;;97.60;32.83;;;-0.50;99.90;;;;;;5061002;28;20076;-65
2022/12/11 06:31:08;;;;;;;75.97;28.73;;;-1.20;99.90;;;;;;5110293;27;20182;-64
2022/12/11 06:33:34;;;;;;;72.63;30.05;;;-1.20;99.90;;;;;;5079287;28;20040;-66
2022/12/11 06:36:06;;;;;;;80.80;29.38;;;-0.50;99.90;;;;;;5078006;28;20062;-65
2022/12/11 06:38:32;;;;;;;85.57;31.52;;;-1.10;99.90;;;;;;5079135;28;20044;-66
2022/12/11 06:40:59;;;;;;;91.85;33.53;;;1.00;99.90;;;;;;5078052;28;20040;-65
2022/12/11 06:43:25;;;;;;;89.13;33.10;;;0.90;99.90;;;;;;5077105;28;20101;-66
2022/12/11 06:45:51;;;;;;;90.53;32.63;;;1.10;99.90;;;;;;5079390;28;20044;-65
2022/12/11 06:48:18;;;;;;;78.13;30.25;;;0.70;99.90;;;;;;5080016;28;20036;-66
2022/12/11 06:50:44;;;;;;;85.75;31.40;;;-1.00;99.90;;;;;;5078568;28;20121;-65
2022/12/11 06:53:12;;;;;;;92.35;33.97;;;0.70;99.90;;;;;;5110901;27;20036;-65
2022/12/11 06:55:38;;;;;;;104.47;35.47;;;-0.90;99.90;;;;;;5080305;28;20040;-66
2022/12/11 06:58:04;;;;;;;88.15;31.88;;;-0.10;99.90;;;;;;5058999;28;20126;-66
2022/12/11 07:00:30;;;;;;;86.10;31.20;;;-0.60;99.90;;;;;;5089030;28;20129;-65
2022/12/11 07:02:55;;;;;;;92.25;32.65;;;0.50;99.90;;;;;;5079473;28;20058;-66
2022/12/11 07:05:21;;;;;;;99.70;33.70;;;0.90;99.90;;;;;;5059879;28;20044;-66
2022/12/11 07:07:47;;;;;;;91.22;31.55;;;0.90;99.90;;;;;;5060053;28;20101;-64
2022/12/11 07:10:13;;;;;;;91.40;33.28;;;-0.30;99.90;;;;;;5061635;28;20086;-64
2022/12/11 07:12:38;;;;;;;99.82;33.63;;;0.30;99.90;;;;;;5090842;28;20046;-64
2022/12/11 07:15:05;;;;;;;90.15;33.30;;;0.20;99.90;;;;;;5078955;28;20036;-66
2022/12/11 07:17:30;;;;;;;96.75;32.20;;;0.00;99.90;;;;;;5077870;28;20119;-66
2022/12/11 07:19:56;;;;;;;106.82;33.55;;;-1.00;99.90;;;;;;5060389;28;20159;-66
2022/12/11 07:22:22;;;;;;;89.32;32.20;;;-0.10;99.90;;;;;;5076289;28;20050;-64
2022/12/11 07:24:48;;;;;;;87.43;30.60;;;-0.90;99.90;;;;;;5079112;28;20134;-66
2022/12/11 07:27:13;;;;;;;83.05;29.73;;;1.00;99.90;;;;;;5079147;28;20036;-65
2022/12/11 07:29:39;;;;;;;91.35;30.75;;;1.00;99.90;;;;;;5057798;28;20039;-65
2022/12/11 07:32:05;;;;;;;92.72;31.67;;;-1.00;99.90;;;;;;5077222;28;20091;-66
2022/12/11 07:34:31;;;;;;;92.55;31.60;;;0.50;99.90;;;;;;5060252;28;20042;-65
2022/12/11 07:36:57;;;;;;;100.30;33.17;;;-0.40;99.90;;;;;;5058091;28;20490;-66
2022/12/11 07:39:22;;;;;;;101.47;32.63;;;-0.60;99.90;;;;;;5109367;27;20047;-64
2022/12/11 07:41:48;;;;;;;96.63;32.78;;;-0.80;99.90;;;;;;5076664;28;20054;-65
2022/12/11 07:44:14;;;;;;;93.43;31.05;;;0.60;99.90;;;;;;5074942;28;20032;-66
2022/12/11 07:46:40;;;;;;;92.65;30.77;;;-0.50;99.90;;;;;;5077164;28;20457;-64
2022/12/11 07:49:08;;;;;;;98.57;31.58;;;-0.20;99.90;;;;;;5058414;28;20111;-65
2022/12/11 07:51:36;;;;;;;100.35;31.55;;;-0.80;99.90;;;;;;5076998;28;20047;-66
2022/12/11 07:54:07;;;;;;;94.70;30.67;;;0.90;99.90;;;;;;5092727;27;20501;-65
2022/12/11 07:56:34;;;;;;;90.43;32.60;;;1.00;99.90;;;;;;5077873;28;20040;-66
2022/12/11 07:59:01;;;;;;;80.50;28.85;;;-0.80;99.90;;;;;;5090324;28;20047;-65
2022/12/11 08:01:29;;;;;;;93.22;31.30;;;0.00;99.90;;;;;;5074779;28;20108;-64
2022/12/11 08:03:55;;;;;;;90.30;31.30;;;0.90;99.90;;;;;;5079907;28;20088;-64
2022/12/11 08:06:26;;;;;;;91.22;30.63;;;-0.90;99.90;;;;;;5062472;28;20043;-66
2022/12/11 08:08:53;;;;;;;92.25;32.17;;;0.50;99.90;;;;;;5054595;28;20698;-65
2022/12/11 08:11:18;;;;;;;85.40;31.20;;;0.50;99.90;;;;;;5061322;28;20065;-64
2022/12/11 08:13:44;;;;;;;85.25;31.92;;;-0.90;99.90;;;;;;5077359;28;20035;-65
2022/12/11 08:16:13;;;;;;;84.00;30.80;;;-0.60;99.90;;;;;;5073835;28;20039;-64
2022/12/11 08:18:40;;;;;;;78.30;27.83;;;0.90;99.90;;;;;;5080625;28;20106;-66
2022/12/11 08:21:16;;;;;;;83.47;29.88;;;0.90;99.90;;;;;;5078686;28;20591;-65
2022/12/11 08:23:42;;;;;;;74.20;29.27;;;-0.70;99.90;;;;;;5079051;28;20039;-64
2022/12/11 08:26:11;;;;;;;78.75;29.77;;;0.50;99.90;;;;;;5091310;28;20035;-64
2022/12/11 08:28:37;;;;;;;86.70;30.67;;;0.70;99.90;;;;;;5110075;27;20035;-65
2022/12/11 08:31:04;;;;;;;72.30;28.50;;;0.50;99.90;;;;;;5076902;28;20137;-67
2022/12/11 08:33:30;;;;;;;78.88;28.98;;;0.90;99.90;;;;;;5075521;28;20040;-65
2022/12/11 08:35:56;;;;;;;65.80;24.05;;;0.70;99.90;;;;;;5094217;28;20043;-66
2022/12/11 08:38:22;;;;;;;68.90;25.58;;;-0.40;99.90;;;;;;5077882;28;20048;-66
2022/12/11 08:40:47;;;;;;;71.70;26.80;;;0.80;99.90;;;;;;5059773;28;20058;-65
2022/12/11 08:43:13;;;;;;;76.72;28.77;;;-0.70;99.90;;;;;;5044943;28;20051;-64
2022/12/11 08:45:39;;;;;;;80.68;29.25;;;0.20;99.90;;;;;;5061555;28;20153;-65
2022/12/11 08:48:05;;;;;;;75.63;26.70;;;0.10;99.90;;;;;;5073400;28;20040;-64
2022/12/11 08:50:30;;;;;;;77.55;27.85;;;-0.70;99.90;;;;;;5076543;28;20050;-65
2022/12/11 08:52:57;;;;;;;77.47;28.58;;;0.80;99.90;;;;;;5076137;28;20054;-65
2022/12/11 08:55:23;;;;;;;78.30;27.98;;;-0.70;99.90;;;;;;5058469;28;20492;-65
2022/12/11 08:57:49;;;;;;;70.68;26.67;;;1.00;99.90;;;;;;5072325;28;20032;-66
2022/12/11 09:00:17;;;;;;;64.45;24.27;;;-0.60;99.90;;;;;;5057922;28;20078;-65
2022/12/11 09:02:43;;;;;;;63.17;23.85;;;-0.60;99.90;;;;;;5105185;27;20059;-63
2022/12/11 09:05:09;;;;;;;69.32;26.35;;;-0.50;99.90;;;;;;5075628;28;20048;-65
2022/12/11 09:07:36;;;;;;;62.33;24.05;;;0.00;99.90;;;;;;5075237;28;20052;-65
2022/12/11 09:10:06;;;;;;;64.80;24.40;;;1.00;99.90;;;;;;5076197;28;20073;-65
2022/12/11 09:12:33;;;;;;;65.13;26.27;;;0.70;99.90;;;;;;5076014;28;20040;-65
2022/12/11 09:14:59;;;;;;;63.35;24.35;;;-0.40;99.90;;;;;;5074328;28;20052;-64
2022/12/11 09:17:24;;;;;;;62.38;24.70;;;0.60;99.90;;;;;;5107407;27;20532;-65
2022/12/11 09:19:50;;;;;;;70.18;25.17;;;1.00;99.90;;;;;;5070817;28;20123;-65
2022/12/11 09:22:16;;;;;;;64.18;25.85;;;-0.40;99.90;;;;;;5059392;28;20075;-65
2022/12/11 09:24:42;;;;;;;68.40;25.75;;;-0.50;99.90;;;;;;5107207;27;20056;-65
2022/12/11 09:27:08;;;;;;;59.45;24.30;;;1.00;99.90;;;;;;5075366;28;20600;-66
2022/12/11 09:29:33;;;;;;;65.85;25.33;;;-0.40;99.90;;;;;;5073034;28;20044;-68
2022/12/11 09:31:59;;;;;;;66.43;25.15;;;-0.10;99.90;;;;;;5074084;28;20036;-65
2022/12/11 09:34:25;;;;;;;60.72;23.38;;;1.00;99.90;;;;;;5073022;28;20705;-65
2022/12/11 09:36:50;;;;;;;55.28;23.75;;;-0.40;99.90;;;;;;5073467;28;20105;-66
2022/12/11 09:39:17;;;;;;;58.67;24.10;;;1.00;99.90;;;;;;5061161;28;20248;-66
2022/12/11 09:42:21;;;;;;;59.58;23.83;;;1.00;99.90;;;;;;5078332;28;20048;-67
2022/12/11 09:44:54;;;;;;;61.58;24.55;;;-0.10;99.90;;;;;;5016628;28;20041;-66
2022/12/11 09:47:34;;;;;;;54.88;21.77;;;0.90;99.90;;;;;;5055407;28;20504;-65
2022/12/11 09:50:03;;;;;;;61.70;23.35;;;0.30;99.90;;;;;;5062623;28;20688;-66
2022/12/11 09:52:36;;;;;;;60.78;23.42;;;0.70;99.90;;;;;;5079494;28;20105;-66
2022/12/11 09:55:03;;;;;;;;;;;0.20;99.90;;;;;;5083531;28;20362;-66
2022/12/11 09:57:38;;;;;;;61.55;23.55;;;0.30;99.90;;;;;;5077198;28;19934;-66
2022/12/11 10:00:27;;;;;;;55.67;22.85;;;1.00;99.90;;;;;;5082521;28;20036;-66
2022/12/11 10:03:37;;;;;;;58.25;22.02;;;-0.20;99.90;;;;;;5074578;28;20464;-66
2022/12/11 10:06:15;;;;;;;51.30;19.95;;;1.10;99.90;;;;;;5107716;27;20056;-66
2022/12/11 10:08:49;;;;;;;63.72;24.25;;;0.90;99.90;;;;;;5060712;28;20036;-65
2022/12/11 10:11:52;;;;;;;61.95;24.63;;;0.80;99.90;;;;;;5090267;28;20130;-65
2022/12/11 10:14:33;;;;;;;58.08;23.98;;;0.00;99.90;;;;;;5079176;28;20044;-66
2022/12/11 10:17:08;;;;;;;66.55;25.73;;;0.10;99.90;;;;;;5063073;28;20548;-66
2022/12/11 10:19:34;;;;;;;53.42;22.50;;;0.90;99.90;;;;;;5079153;28;20051;-66
2022/12/11 10:22:01;;;;;;;57.85;23.23;;;1.20;99.90;;;;;;5078790;28;20356;-65
2022/12/11 10:24:57;;;;;;;60.00;24.25;;;1.20;99.90;;;;;;5076898;28;20043;-66
2022/12/11 10:27:30;;;;;;;65.85;25.60;;;0.00;99.90;;;;;;5105647;27;20074;-65
2022/12/11 10:30:26;;;;;;;68.93;26.20;;;1.10;99.90;;;;;;5065032;28;20044;-67
2022/12/11 10:33:10;;;;;;;67.30;25.25;;;1.10;99.90;;;;;;5081081;28;20891;-65
2022/12/11 10:35:46;;;;;;;63.67;24.17;;;0.60;99.90;;;;;;5080615;28;20373;-65
2022/12/11 10:38:21;;;;;;;66.97;25.88;;;0.30;99.90;;;;;;5092581;28;20099;-65
2022/12/11 10:40:51;;;;;;;69.00;24.88;;;0.10;99.90;;;;;;5081682;28;20048;-67
2022/12/11 10:43:17;;;;;;;70.20;26.55;;;0.70;99.90;;;;;;5080497;28;20044;-66
2022/12/11 10:45:53;;;;;;;72.68;27.48;;;0.00;99.90;;;;;;5086530;28;20318;-65
2022/12/11 10:48:19;;;;;;;67.35;26.33;;;1.20;99.90;;;;;;5070074;28;20044;-65
2022/12/11 10:50:56;;;;;;;69.32;26.65;;;0.40;99.90;;;;;;5078861;28;20051;-66
2022/12/11 10:53:22;;;;;;;69.53;28.08;;;0.10;99.90;;;;;;5078742;28;20054;-66
2022/12/11 10:55:49;;;;;;;73.55;27.42;;;0.40;99.90;;;;;;5060280;28;20039;-66
2022/12/11 10:58:21;;;;;;;67.30;25.92;;;0.00;99.90;;;;;;5079555;28;20410;-65
2022/12/11 11:01:07;;;;;;;69.35;27.75;;;1.20;99.90;;;;;;5078498;28;20118;-65
2022/12/11 11:03:35;;;;;;;76.93;28.55;;;0.40;99.90;;;;;;5063848;28;20131;-65
2022/12/11 11:06:04;;;;;;;76.25;28.00;;;1.20;99.90;;;;;;5079446;28;20058;-66
2022/12/11 11:08:39;;;;;;;72.55;27.50;;;0.30;99.90;;;;;;5093090;28;20388;-65
2022/12/11 11:11:07;;;;;;;68.03;27.15;;;0.50;99.90;;;;;;5105200;27;20040;-65
2022/12/11 11:13:33;;;;;;;74.47;27.83;;;1.30;99.90;;;;;;5077458;28;20546;-68
2022/12/11 11:16:04;;;;;;;73.03;27.73;;;1.20;99.90;;;;;;5077674;28;20818;-65
2022/12/11 11:18:31;;;;;;;72.55;27.23;;;1.30;99.90;;;;;;5079353;28;20898;-65
2022/12/11 11:20:57;;;;;;;74.88;29.35;;;1.20;99.90;;;;;;5063147;28;20050;-65
2022/12/11 11:23:24;;;;;;;69.90;26.00;;;1.20;99.90;;;;;;5076127;28;20393;-65
2022/12/11 11:25:55;;;;;;;72.28;28.40;;;1.30;99.90;;;;;;5106040;27;20044;-66
2022/12/11 11:28:28;;;;;;;73.43;29.10;;;0.10;99.90;;;;;;5079218;28;20032;-66
2022/12/11 11:31:04;;;;;;;67.63;28.17;;;1.30;99.90;;;;;;5106865;27;20545;-65
2022/12/11 11:33:31;;;;;;;71.20;27.33;;;0.20;99.90;;;;;;5081900;28;20040;-65
2022/12/11 11:36:03;;;;;;;69.75;26.83;;;0.60;99.90;;;;;;5079719;28;20115;-66
2022/12/11 11:38:32;;;;;;;73.63;28.45;;;1.30;99.90;;;;;;5078979;28;20622;-66
2022/12/11 11:41:11;;;;;;;70.90;28.60;;;0.10;99.90;;;;;;5078285;28;20428;-65
2022/12/11 11:43:50;;;;;;;71.85;27.60;;;1.20;99.90;;;;;;5077765;28;20131;-66
2022/12/11 11:46:35;;;;;;;67.00;27.10;;;0.10;99.90;;;;;;5077677;28;20040;-67
2022/12/11 11:49:40;;;;;;;69.00;28.23;;;0.20;99.90;;;;;;5078212;28;20035;-66
2022/12/11 11:52:16;;;;;;;68.53;26.50;;;0.70;99.90;;;;;;5078053;28;20072;-65
2022/12/11 11:54:48;;;;;;;73.45;29.52;;;0.90;99.90;;;;;;5077156;28;20502;-66
2022/12/11 11:57:41;;;;;;;70.30;28.75;;;0.20;99.90;;;;;;5107436;27;20040;-66
2022/12/11 12:00:28;;;;;;;76.88;30.13;;;0.30;99.90;;;;;;5076383;28;20111;-65
2022/12/11 12:02:59;;;;;;;68.72;27.67;;;0.40;99.90;;;;;;5077236;28;20040;-65
2022/12/11 12:05:38;;;;;;;67.13;28.13;;;0.20;99.90;;;;;;5077259;28;20062;-65
2022/12/11 12:08:23;;;;;;;68.93;28.30;;;0.80;99.90;;;;;;5078764;28;20100;-67
2022/12/11 12:11:17;;;;;;;73.60;29.98;;;0.10;99.90;;;;;;5076918;28;20035;-66
2022/12/11 12:13:58;;;;;;;72.03;28.75;;;0.10;99.90;;;;;;5073284;28;20074;-66
2022/12/11 12:16:46;;;;;;;72.60;29.83;;;0.80;99.90;;;;;;5076414;28;20278;-66
2022/12/11 12:19:21;;;;;;;72.97;30.65;;;0.30;99.90;;;;;;5076050;28;20393;-66
2022/12/11 12:21:51;;;;;;;75.15;31.08;;;0.40;99.90;;;;;;5076483;28;20044;-66
2022/12/11 12:24:48;;;;;;;81.35;32.70;;;1.40;99.90;;;;;;5058361;28;20039;-66
2022/12/11 12:27:22;;;;;;;67.65;26.73;;;1.20;99.90;;;;;;5058306;28;20044;-65
2022/12/11 12:30:12;;;;;;;70.22;29.92;;;0.40;99.90;;;;;;5074007;28;20054;-67
2022/12/11 12:32:53;;;;;;;70.00;30.25;;;1.40;99.90;;;;;;5103832;27;20058;-68
2022/12/11 12:35:36;;;;;;;71.80;29.50;;;1.40;99.90;;;;;;5077198;28;20086;-65
2022/12/11 12:38:22;;;;;;;69.03;27.70;;;1.40;99.90;;;;;;5076525;28;20570;-66
2022/12/11 12:40:56;;;;;;;76.03;31.08;;;1.10;99.90;;;;;;5076038;28;20036;-66
2022/12/11 12:43:54;;;;;;;;;;;1.30;99.90;;;;;;5078424;28;20059;-65
2022/12/11 12:46:50;;;;;;;72.13;30.60;;;1.20;99.90;;;;;;5051088;28;20014;-66
2022/12/11 12:49:35;;;;;;;65.20;27.63;;;1.40;99.90;;;;;;5077205;28;20047;-65
2022/12/11 12:52:03;;;;;;;68.95;30.67;;;1.40;99.90;;;;;;5061969;28;20039;-65
2022/12/11 12:54:32;;;;;;;70.53;29.30;;;0.30;99.90;;;;;;5079158;28;20035;-65